createdAt,value
2018-06-02T00:00:58.000Z,64.0
2018-06-02T00:01:58.722Z,65.0
2018-06-02T00:02:59.449Z,66.6
2018-06-02T00:04:00.189Z,67.2
2018-06-02T00:05:00.926Z,67.9
2018-06-02T00:06:01.799Z,67.2
2018-06-02T00:07:02.523Z,68.5
2018-06-02T00:08:03.236Z,65.7
2018-06-02T00:09:03.978Z,68.8
2018-06-02T00:10:04.710Z,68.7
2018-06-02T00:11:05.781Z,68.9
2018-06-02T00:12:06.484Z,70.7
2018-06-02T00:13:07.215Z,66.1
2018-06-02T00:14:07.944Z,68.7
2018-06-02T00:15:08.672Z,70.8
2018-06-02T00:16:09.799Z,70.4
2018-06-02T00:17:10.529Z,68.4
2018-06-02T00:18:11.261Z,69.2
2018-06-02T00:19:11.991Z,69.9
2018-06-02T00:20:12.734Z,66.1
2018-06-02T00:21:13.622Z,71.7
2018-06-02T00:22:14.355Z,71.6
2018-06-02T00:23:15.084Z,71.7
2018-06-02T00:24:16.068Z,68.7
2018-06-02T00:25:16.791Z,73.6
2018-06-02T00:26:17.876Z,72.8
2018-06-02T00:27:18.597Z,74.5
2018-06-02T00:28:19.567Z,73.2
2018-06-02T00:29:20.290Z,75.4
2018-06-02T00:30:21.288Z,73.8
2018-06-02T00:31:22.108Z,73.8
2018-06-02T00:32:22.836Z,77.5
2018-06-02T00:33:23.554Z,76.9
2018-06-02T00:34:24.280Z,77.2
2018-06-02T00:35:25.262Z,82.1
2018-06-02T00:36:25.995Z,83.3
2018-06-02T00:37:26.726Z,87.4
2018-06-02T00:38:27.697Z,86.5
2018-06-02T00:39:28.436Z,88.0
2018-06-02T00:40:29.568Z,90.7
2018-06-02T00:41:30.301Z,87.9
2018-06-02T00:42:31.023Z,94.3
2018-06-02T00:43:31.758Z,96.1
2018-06-02T00:44:32.485Z,92.7
2018-06-02T00:45:33.618Z,92.3
2018-06-02T00:46:34.594Z,94.7
2018-06-02T00:47:35.336Z,94.6
2018-06-02T00:48:36.065Z,95.7
2018-06-02T00:49:36.793Z,96.1
2018-06-02T00:50:37.921Z,95.2
2018-06-02T00:51:38.655Z,100.8
2018-06-02T00:52:39.633Z,105.8
2018-06-02T00:53:40.364Z,108.6
2018-06-02T00:54:41.117Z,108.3
2018-06-02T00:55:41.954Z,107.4
2018-06-02T00:56:42.685Z,111.7
2018-06-02T00:57:43.421Z,111.2
2018-06-02T00:58:44.147Z,114.5
2018-06-02T00:59:45.132Z,113.1
2018-06-02T01:00:46.259Z,118.7
2018-06-02T01:01:47.244Z,115.7
2018-06-02T01:02:47.978Z,118.1
2018-06-02T01:03:48.720Z,120.0
2018-06-02T01:04:49.445Z,120.2
2018-06-02T01:05:50.177Z,122.7
2018-06-02T01:06:50.904Z,117.4
2018-06-02T01:07:51.637Z,123.4
2018-06-02T01:08:52.377Z,123.7
2018-06-02T01:09:53.104Z,121.5
2018-06-02T01:10:53.856Z,122.2
2018-06-02T01:11:54.679Z,123.2
2018-06-02T01:12:55.409Z,125.5
2018-06-02T01:13:56.148Z,129.0
2018-06-02T01:14:56.883Z,127.8
2018-06-02T01:15:57.628Z,123.5
2018-06-02T01:16:58.607Z,126.9
2018-06-02T01:17:59.586Z,122.9
2018-06-02T01:19:00.310Z,124.9
2018-06-02T01:20:01.040Z,122.5
2018-06-02T01:21:01.776Z,122.8
2018-06-02T01:22:02.504Z,119.7
2018-06-02T01:23:03.230Z,121.7
2018-06-02T01:24:03.969Z,117.2
2018-06-02T01:25:04.960Z,118.1
2018-06-02T01:26:05.671Z,115.7
2018-06-02T01:27:06.639Z,117.3
2018-06-02T01:28:07.605Z,117.9
2018-06-02T01:29:08.439Z,115.6
2018-06-02T01:30:09.175Z,116.7
2018-06-02T01:31:09.912Z,116.8
2018-06-02T01:32:10.639Z,118.5
2018-06-02T01:33:11.626Z,112.3
2018-06-02T01:34:12.348Z,113.5
2018-06-02T01:35:13.074Z,113.6
2018-06-02T01:36:13.805Z,116.3
2018-06-02T01:37:14.556Z,116.1
2018-06-02T01:38:15.276Z,109.6
2018-06-02T01:39:16.005Z,111.3
2018-06-02T01:40:16.732Z,108.3
2018-06-02T01:41:17.506Z,109.8
2018-06-02T01:42:18.227Z,109.4
2018-06-02T01:43:18.964Z,106.7
2018-06-02T01:44:19.688Z,105.3
2018-06-02T01:45:20.422Z,103.7
2018-06-02T01:46:21.149Z,103.9
2018-06-02T01:47:21.888Z,101.4
2018-06-02T01:48:22.611Z,102.7
2018-06-02T01:49:23.339Z,96.6
2018-06-02T01:50:24.075Z,98.4
2018-06-02T01:51:24.853Z,100.5
2018-06-02T01:52:25.578Z,97.1
2018-06-02T01:53:26.308Z,102.8
2018-06-02T01:54:27.032Z,104.0
2018-06-02T01:55:27.756Z,100.5
2018-06-02T01:56:28.489Z,98.3
2018-06-02T01:57:29.469Z,98.8
2018-06-02T01:58:30.186Z,98.5
2018-06-02T01:59:30.924Z,99.2
2018-06-02T02:00:31.656Z,100.0
2018-06-02T02:01:32.381Z,103.2
2018-06-02T02:02:33.368Z,98.2
2018-06-02T02:03:34.089Z,103.9
2018-06-02T02:04:34.815Z,106.2
2018-06-02T02:05:35.786Z,107.1
2018-06-02T02:06:36.760Z,109.2
2018-06-02T02:07:37.492Z,109.7
2018-06-02T02:08:38.215Z,107.8
2018-06-02T02:09:39.189Z,109.0
2018-06-02T02:10:40.016Z,107.9
2018-06-02T02:11:40.981Z,109.2
2018-06-02T02:12:41.721Z,109.9
2018-06-02T02:13:42.702Z,109.5
2018-06-02T02:14:43.682Z,116.8
2018-06-02T02:15:45.007Z,115.1
2018-06-02T02:16:45.744Z,114.7
2018-06-02T02:17:46.473Z,114.6
2018-06-02T02:18:47.199Z,115.9
2018-06-02T02:19:47.937Z,115.3
2018-06-02T02:20:49.058Z,114.3
2018-06-02T02:21:49.787Z,118.2
2018-06-02T02:22:50.508Z,116.0
2018-06-02T02:23:51.236Z,116.2
2018-06-02T02:24:51.976Z,118.1
2018-06-02T02:25:52.701Z,120.8
2018-06-02T02:26:53.430Z,118.5
2018-06-02T02:27:54.157Z,116.8
2018-06-02T02:28:54.892Z,118.7
2018-06-02T02:29:55.611Z,115.6
2018-06-02T02:30:56.713Z,116.7
2018-06-02T02:31:57.441Z,113.9
2018-06-02T02:32:58.169Z,115.2
2018-06-02T02:33:59.162Z,119.6
2018-06-02T02:34:59.900Z,117.8
2018-06-02T02:36:01.026Z,116.0
2018-06-02T02:37:01.751Z,119.3
2018-06-02T02:38:02.478Z,116.9
2018-06-02T02:39:03.199Z,115.6
2018-06-02T02:40:03.936Z,117.3
2018-06-02T02:41:04.670Z,119.8
2018-06-02T02:42:05.400Z,128.4
2018-06-02T02:43:06.178Z,124.7
2018-06-02T02:44:06.868Z,125.4
2018-06-02T02:45:07.589Z,127.8
2018-06-02T02:46:08.563Z,127.1
2018-06-02T02:47:09.279Z,126.2
2018-06-02T02:48:10.000Z,126.5
2018-06-02T02:49:10.727Z,126.6
2018-06-02T02:50:11.569Z,129.4
2018-06-02T02:51:12.283Z,132.0
2018-06-02T02:52:13.009Z,125.2
2018-06-02T02:53:13.728Z,128.7
2018-06-02T02:54:14.459Z,126.2
2018-06-02T02:55:15.292Z,126.5
2018-06-02T02:56:16.023Z,125.3
2018-06-02T02:57:16.754Z,127.2
2018-06-02T02:58:17.491Z,122.3
2018-06-02T02:59:18.222Z,124.9
2018-06-02T03:00:19.009Z,126.1
2018-06-02T03:01:19.732Z,125.7
2018-06-02T03:02:20.471Z,124.0
2018-06-02T03:03:21.191Z,124.2
2018-06-02T03:04:21.930Z,122.7
2018-06-02T03:05:23.107Z,124.0
2018-06-02T03:06:23.847Z,122.2
2018-06-02T03:07:24.571Z,124.4
2018-06-02T03:08:25.300Z,127.7
2018-06-02T03:09:26.088Z,125.3
2018-06-02T03:10:27.120Z,126.0
2018-06-02T03:11:27.848Z,124.7
2018-06-02T03:12:28.573Z,123.6
2018-06-02T03:13:29.300Z,131.5
2018-06-02T03:14:30.023Z,125.4
2018-06-02T03:15:31.105Z,122.7
2018-06-02T03:16:31.841Z,122.7
2018-06-02T03:17:32.566Z,125.9
2018-06-02T03:18:33.293Z,123.8
2018-06-02T03:19:34.020Z,125.4
2018-06-02T03:20:34.745Z,120.3
2018-06-02T03:21:35.715Z,127.0
2018-06-02T03:22:36.693Z,124.0
2018-06-02T03:23:37.432Z,121.2
2018-06-02T03:24:38.155Z,123.8
2018-06-02T03:25:38.902Z,121.8
2018-06-02T03:26:39.622Z,118.1
2018-06-02T03:27:40.396Z,123.8
2018-06-02T03:28:41.130Z,120.1
2018-06-02T03:29:41.858Z,117.5
2018-06-02T03:30:42.583Z,113.3
2018-06-02T03:31:43.306Z,115.9
2018-06-02T03:32:44.046Z,116.9
2018-06-02T03:33:44.771Z,115.8
2018-06-02T03:34:45.493Z,112.1
2018-06-02T03:35:46.217Z,114.6
2018-06-02T03:36:47.193Z,117.1
2018-06-02T03:37:47.925Z,117.7
2018-06-02T03:38:48.655Z,114.3
2018-06-02T03:39:49.406Z,114.0
2018-06-02T03:40:50.125Z,114.1
2018-06-02T03:41:50.869Z,112.2
2018-06-02T03:42:51.594Z,114.9
2018-06-02T03:43:52.335Z,113.4
2018-06-02T03:44:53.048Z,110.0
2018-06-02T03:45:53.790Z,110.1
2018-06-02T03:46:54.510Z,111.5
2018-06-02T03:47:55.246Z,110.9
2018-06-02T03:48:56.239Z,110.8
2018-06-02T03:49:56.970Z,112.4
2018-06-02T03:50:57.699Z,114.6
2018-06-02T03:51:58.456Z,113.3
2018-06-02T03:52:59.196Z,113.3
2018-06-02T03:54:00.174Z,113.1
2018-06-02T03:55:00.911Z,113.3
2018-06-02T03:56:01.634Z,116.5
2018-06-02T03:57:02.365Z,114.0
2018-06-02T03:58:03.091Z,113.9
2018-06-02T03:59:03.826Z,111.8
2018-06-02T04:00:04.552Z,113.6
2018-06-02T04:01:05.284Z,116.9
2018-06-02T04:02:06.025Z,115.5
2018-06-02T04:03:06.755Z,114.8
2018-06-02T04:04:07.490Z,109.2
2018-06-02T04:05:08.232Z,107.4
2018-06-02T04:06:08.991Z,108.9
2018-06-02T04:07:09.759Z,108.5
2018-06-02T04:08:10.496Z,103.8
2018-06-02T04:09:11.222Z,104.2
2018-06-02T04:10:11.964Z,101.9
2018-06-02T04:11:12.690Z,102.5
2018-06-02T04:12:13.427Z,100.1
2018-06-02T04:13:14.159Z,102.5
2018-06-02T04:14:15.143Z,99.3
2018-06-02T04:15:15.873Z,96.6
2018-06-02T04:16:16.604Z,97.1
2018-06-02T04:17:17.343Z,96.3
2018-06-02T04:18:18.067Z,91.0
2018-06-02T04:19:18.793Z,90.2
2018-06-02T04:20:19.521Z,92.0
2018-06-02T04:21:20.236Z,87.4
2018-06-02T04:22:20.998Z,88.7
2018-06-02T04:23:21.719Z,90.3
2018-06-02T04:24:22.452Z,85.8
2018-06-02T04:25:23.181Z,86.2
2018-06-02T04:26:23.915Z,88.7
2018-06-02T04:27:24.643Z,82.8
2018-06-02T04:28:25.622Z,80.5
2018-06-02T04:29:26.360Z,84.2
2018-06-02T04:30:27.082Z,85.1
2018-06-02T04:31:27.812Z,84.0
2018-06-02T04:32:28.552Z,83.9
2018-06-02T04:33:29.268Z,82.3
2018-06-02T04:34:29.995Z,82.4
2018-06-02T04:35:30.722Z,81.9
2018-06-02T04:36:31.456Z,79.3
2018-06-02T04:37:32.189Z,77.7
2018-06-02T04:38:32.929Z,80.1
2018-06-02T04:39:33.659Z,78.7
2018-06-02T04:40:34.402Z,76.7
2018-06-02T04:41:35.171Z,78.5
2018-06-02T04:42:36.303Z,77.0
2018-06-02T04:43:37.293Z,76.1
2018-06-02T04:44:38.033Z,77.1
2018-06-02T04:45:38.768Z,77.7
2018-06-02T04:46:39.485Z,80.6
2018-06-02T04:47:40.214Z,75.7
2018-06-02T04:48:40.950Z,79.9
2018-06-02T04:49:41.681Z,78.0
2018-06-02T04:50:42.660Z,77.7
2018-06-02T04:51:43.630Z,75.2
2018-06-02T04:52:44.375Z,74.4
2018-06-02T04:53:45.107Z,78.0
2018-06-02T04:54:45.839Z,74.3
2018-06-02T04:55:46.576Z,74.5
2018-06-02T04:56:47.311Z,77.6
2018-06-02T04:57:48.029Z,79.7
2018-06-02T04:58:48.756Z,79.2
2018-06-02T04:59:49.491Z,77.8
2018-06-02T05:00:50.210Z,78.0
2018-06-02T05:01:51.195Z,78.6
2018-06-02T05:02:51.931Z,77.9
2018-06-02T05:03:53.023Z,79.5
2018-06-02T05:04:53.745Z,77.2
2018-06-02T05:05:54.720Z,81.2
2018-06-02T05:06:55.445Z,79.6
2018-06-02T05:07:56.174Z,83.7
2018-06-02T05:08:56.921Z,82.5
2018-06-02T05:09:57.966Z,83.0
2018-06-02T05:10:58.686Z,79.6
2018-06-02T05:11:59.435Z,80.7
2018-06-02T05:13:00.431Z,82.9
2018-06-02T05:14:01.154Z,83.9
2018-06-02T05:15:01.961Z,83.8
2018-06-02T05:16:02.672Z,81.7
2018-06-02T05:17:03.648Z,84.0
2018-06-02T05:18:04.636Z,85.7
2018-06-02T05:19:05.361Z,86.9
2018-06-02T05:20:06.100Z,82.6
2018-06-02T05:21:06.880Z,84.4
2018-06-02T05:22:07.623Z,86.0
2018-06-02T05:23:08.343Z,80.9
2018-06-02T05:24:09.062Z,83.6
2018-06-02T05:25:09.795Z,83.6
2018-06-02T05:26:10.619Z,84.7
2018-06-02T05:27:11.605Z,80.5
2018-06-02T05:28:12.328Z,82.1
2018-06-02T05:29:13.086Z,81.0
2018-06-02T05:30:13.819Z,81.0
2018-06-02T05:31:14.590Z,79.3
2018-06-02T05:32:15.330Z,76.6
2018-06-02T05:33:16.068Z,74.8
2018-06-02T05:34:16.809Z,78.4
2018-06-02T05:35:17.596Z,74.8
2018-06-02T05:36:18.270Z,72.6
2018-06-02T05:37:18.998Z,72.6
2018-06-02T05:38:19.725Z,70.5
2018-06-02T05:39:20.466Z,71.7
2018-06-02T05:40:21.202Z,69.7
2018-06-02T05:41:22.195Z,74.9
2018-06-02T05:42:22.921Z,73.0
2018-06-02T05:43:23.652Z,73.2
2018-06-02T05:44:24.443Z,73.8
2018-06-02T05:45:25.171Z,73.7
2018-06-02T05:46:25.903Z,68.8
2018-06-02T05:47:26.637Z,66.3
2018-06-02T05:48:27.624Z,68.1
2018-06-02T05:49:28.357Z,63.5
2018-06-02T05:50:29.087Z,63.1
2018-06-02T05:51:29.870Z,64.2
2018-06-02T05:52:30.599Z,65.3
2018-06-02T05:53:31.320Z,66.4
2018-06-02T05:54:32.063Z,63.1
2018-06-02T05:55:32.794Z,65.3
2018-06-02T05:56:33.569Z,66.5
2018-06-02T05:57:34.296Z,66.6
2018-06-02T05:58:35.029Z,66.1
2018-06-02T05:59:35.758Z,63.5
2018-06-02T06:00:36.489Z,66.0
2018-06-02T06:01:37.217Z,60.9
2018-06-02T06:02:37.941Z,64.1
2018-06-02T06:03:38.679Z,62.8
2018-06-02T06:04:39.426Z,62.6
2018-06-02T06:05:40.149Z,65.7
2018-06-02T06:06:40.896Z,63.0
2018-06-02T06:07:41.637Z,62.8
2018-06-02T06:08:42.374Z,61.2
2018-06-02T06:09:43.104Z,66.0
2018-06-02T06:10:43.854Z,62.4
2018-06-02T06:11:44.581Z,65.6
2018-06-02T06:12:45.301Z,64.9
2018-06-02T06:13:46.042Z,62.8
2018-06-02T06:14:46.774Z,62.8
2018-06-02T06:15:47.753Z,64.2
2018-06-02T06:16:48.482Z,66.3
2018-06-02T06:17:49.461Z,66.2
2018-06-02T06:18:50.187Z,64.2
2018-06-02T06:19:51.073Z,65.6
2018-06-02T06:20:51.796Z,67.1
2018-06-02T06:21:52.771Z,66.5
2018-06-02T06:22:53.503Z,65.7
2018-06-02T06:23:54.250Z,67.4
2018-06-02T06:24:54.992Z,69.0
2018-06-02T06:25:55.712Z,66.9
2018-06-02T06:26:56.493Z,67.4
2018-06-02T06:27:57.186Z,65.8
2018-06-02T06:28:57.921Z,66.3
2018-06-02T06:29:58.647Z,66.6
2018-06-02T06:30:59.381Z,68.0
2018-06-02T06:32:00.159Z,67.8
2018-06-02T06:33:00.979Z,69.3
2018-06-02T06:34:01.615Z,64.2
2018-06-02T06:35:02.348Z,66.0
2018-06-02T06:36:03.080Z,66.9
2018-06-02T06:37:03.809Z,65.7
2018-06-02T06:38:04.546Z,69.3
2018-06-02T06:39:05.577Z,66.2
2018-06-02T06:40:06.268Z,64.4
2018-06-02T06:41:07.002Z,64.6
2018-06-02T06:42:07.773Z,63.2
2018-06-02T06:43:08.524Z,61.6
2018-06-02T06:44:09.250Z,60.2
2018-06-02T06:45:09.994Z,59.7
2018-06-02T06:46:10.712Z,59.6
2018-06-02T06:47:11.686Z,60.5
2018-06-02T06:48:12.418Z,61.1
2018-06-02T06:49:13.154Z,58.8
2018-06-02T06:50:13.881Z,59.3
2018-06-02T06:51:14.621Z,56.8
2018-06-02T06:52:15.353Z,56.5
2018-06-02T06:53:16.091Z,53.7
2018-06-02T06:54:16.830Z,52.1
2018-06-02T06:55:17.556Z,52.5
2018-06-02T06:56:18.295Z,50.7
2018-06-02T06:57:19.024Z,49.2
2018-06-02T06:58:20.009Z,48.0
2018-06-02T06:59:20.742Z,51.3
2018-06-02T07:00:21.484Z,47.9
2018-06-02T07:01:22.219Z,49.7
2018-06-02T07:02:22.958Z,49.1
2018-06-02T07:03:23.739Z,47.5
2018-06-02T07:04:24.476Z,47.3
2018-06-02T07:05:25.200Z,46.9
2018-06-02T07:06:25.929Z,45.6
2018-06-02T07:07:26.651Z,45.2
2018-06-02T07:08:27.438Z,46.3
2018-06-02T07:09:28.169Z,44.3
2018-06-02T07:10:29.158Z,45.2
2018-06-02T07:11:29.898Z,46.4
2018-06-02T07:12:30.632Z,45.4
2018-06-02T07:13:31.367Z,44.4
2018-06-02T07:14:32.102Z,43.3
2018-06-02T07:15:32.849Z,45.9
2018-06-02T07:16:33.594Z,43.2
2018-06-02T07:17:34.325Z,43.5
2018-06-02T07:18:35.056Z,43.3
2018-06-02T07:19:35.792Z,42.8
2018-06-02T07:20:36.517Z,42.7
2018-06-02T07:21:37.655Z,43.0
2018-06-02T07:22:38.642Z,44.4
2018-06-02T07:23:39.625Z,44.8
2018-06-02T07:24:40.308Z,43.6
2018-06-02T07:25:41.046Z,42.9
2018-06-02T07:26:41.772Z,44.3
2018-06-02T07:27:42.502Z,44.2
2018-06-02T07:28:43.486Z,42.9
2018-06-02T07:29:44.216Z,40.0
2018-06-02T07:30:44.943Z,43.8
2018-06-02T07:31:46.070Z,44.5
2018-06-02T07:32:46.811Z,40.4
2018-06-02T07:33:47.558Z,41.2
2018-06-02T07:34:48.284Z,42.6
2018-06-02T07:35:49.016Z,42.2
2018-06-02T07:36:49.794Z,42.9
2018-06-02T07:37:50.529Z,43.1
2018-06-02T07:38:51.273Z,42.7
2018-06-02T07:39:52.009Z,40.9
2018-06-02T07:40:52.736Z,42.9
2018-06-02T07:41:53.862Z,43.4
2018-06-02T07:42:54.597Z,43.2
2018-06-02T07:43:55.333Z,41.7
2018-06-02T07:44:56.063Z,39.3
2018-06-02T07:45:56.807Z,39.9
2018-06-02T07:46:57.535Z,40.1
2018-06-02T07:47:58.262Z,38.6
2018-06-02T07:48:59.000Z,39.0
2018-06-02T07:49:59.792Z,36.3
2018-06-02T07:51:00.462Z,36.4
2018-06-02T07:52:01.201Z,34.3
2018-06-02T07:53:02.291Z,34.9
2018-06-02T07:54:03.030Z,33.8
2018-06-02T07:55:03.761Z,34.6
2018-06-02T07:56:04.740Z,34.6
2018-06-02T07:57:05.727Z,34.4
2018-06-02T07:58:06.493Z,34.5
2018-06-02T07:59:07.219Z,32.4
2018-06-02T08:00:07.975Z,34.3
2018-06-02T08:01:08.702Z,33.2
2018-06-02T08:02:09.451Z,31.7
2018-06-02T08:03:10.188Z,32.9
2018-06-02T08:04:10.928Z,33.8
2018-06-02T08:05:11.761Z,29.3
2018-06-02T08:06:12.495Z,29.6
2018-06-02T08:07:13.225Z,31.5
2018-06-02T08:08:13.968Z,29.9
2018-06-02T08:09:14.693Z,30.2
2018-06-02T08:10:15.891Z,29.5
2018-06-02T08:11:16.612Z,29.3
2018-06-02T08:12:17.363Z,27.9
2018-06-02T08:13:18.138Z,28.2
2018-06-02T08:14:18.883Z,27.5
2018-06-02T08:15:20.012Z,28.1
2018-06-02T08:16:20.741Z,25.6
2018-06-02T08:17:21.481Z,25.7
2018-06-02T08:18:22.223Z,26.6
2018-06-02T08:19:22.949Z,26.4
2018-06-02T08:20:23.685Z,25.5
2018-06-02T08:21:24.663Z,24.6
2018-06-02T08:22:25.409Z,23.7
2018-06-02T08:23:26.142Z,24.7
2018-06-02T08:24:26.871Z,23.4
2018-06-02T08:25:27.603Z,22.5
2018-06-02T08:26:28.384Z,21.9
2018-06-02T08:27:29.121Z,23.4
2018-06-02T08:28:29.851Z,22.4
2018-06-02T08:29:30.574Z,23.0
2018-06-02T08:30:31.305Z,23.5
2018-06-02T08:31:32.036Z,22.7
2018-06-02T08:32:32.828Z,23.8
2018-06-02T08:33:33.566Z,23.1
2018-06-02T08:34:34.286Z,21.9
2018-06-02T08:35:35.015Z,21.4
2018-06-02T08:36:35.737Z,22.6
2018-06-02T08:37:36.468Z,22.2
2018-06-02T08:38:37.202Z,21.1
2018-06-02T08:39:38.178Z,21.9
2018-06-02T08:40:38.909Z,22.3
2018-06-02T08:41:39.635Z,22.0
2018-06-02T08:42:40.371Z,22.3
2018-06-02T08:43:41.146Z,21.9
2018-06-02T08:44:41.884Z,21.7
2018-06-02T08:45:42.625Z,21.7
2018-06-02T08:46:43.377Z,22.0
2018-06-02T08:47:44.110Z,20.9
2018-06-02T08:48:45.192Z,21.6
2018-06-02T08:49:45.917Z,21.2
2018-06-02T08:50:46.646Z,19.1
2018-06-02T08:51:47.388Z,20.8
2018-06-02T08:52:48.128Z,21.3
2018-06-02T08:53:48.963Z,21.5
2018-06-02T08:54:49.690Z,22.2
2018-06-02T08:55:50.438Z,20.7
2018-06-02T08:56:51.168Z,22.2
2018-06-02T08:57:52.145Z,21.2
2018-06-02T08:58:52.981Z,21.3
2018-06-02T08:59:53.656Z,21.3
2018-06-02T09:00:54.396Z,22.7
2018-06-02T09:01:55.370Z,22.2
2018-06-02T09:02:56.098Z,22.4
2018-06-02T09:03:56.824Z,23.4
2018-06-02T09:04:57.555Z,23.0
2018-06-02T09:05:58.629Z,22.5
2018-06-02T09:06:59.366Z,22.6
2018-06-02T09:08:00.090Z,23.8
2018-06-02T09:09:00.812Z,21.9
2018-06-02T09:10:01.544Z,22.3
2018-06-02T09:11:02.276Z,22.2
2018-06-02T09:12:03.004Z,22.8
2018-06-02T09:13:03.731Z,23.1
2018-06-02T09:14:04.478Z,23.3
2018-06-02T09:15:05.210Z,22.7
2018-06-02T09:16:06.011Z,22.8
2018-06-02T09:17:06.744Z,23.4
2018-06-02T09:18:07.474Z,23.9
2018-06-02T09:19:08.215Z,22.9
2018-06-02T09:20:09.206Z,22.7
2018-06-02T09:21:09.933Z,22.1
2018-06-02T09:22:10.682Z,22.3
2018-06-02T09:23:11.419Z,22.1
2018-06-02T09:24:12.148Z,22.3
2018-06-02T09:25:12.890Z,22.0
2018-06-02T09:26:13.620Z,22.5
2018-06-02T09:27:14.361Z,21.2
2018-06-02T09:28:15.340Z,21.9
2018-06-02T09:29:16.116Z,23.0
2018-06-02T09:30:16.851Z,22.1
2018-06-02T09:31:17.600Z,22.6
2018-06-02T09:32:18.330Z,22.0
2018-06-02T09:33:19.055Z,21.1
2018-06-02T09:34:19.801Z,21.0
2018-06-02T09:35:20.732Z,21.7
2018-06-02T09:36:21.416Z,21.0
2018-06-02T09:37:22.149Z,21.7
2018-06-02T09:38:22.880Z,20.2
2018-06-02T09:39:23.865Z,21.0
2018-06-02T09:40:24.606Z,19.5
2018-06-02T09:41:25.349Z,19.3
2018-06-02T09:42:26.072Z,18.9
2018-06-02T09:43:26.803Z,19.3
2018-06-02T09:44:27.541Z,17.8
2018-06-02T09:45:28.276Z,17.7
2018-06-02T09:46:29.021Z,17.5
2018-06-02T09:47:29.858Z,16.3
2018-06-02T09:48:30.596Z,16.9
2018-06-02T09:49:31.327Z,16.0
2018-06-02T09:50:32.073Z,16.3
2018-06-02T09:51:32.807Z,16.3
2018-06-02T09:52:33.543Z,16.3
2018-06-02T09:53:34.621Z,16.1
2018-06-02T09:54:35.350Z,16.9
2018-06-02T09:55:36.091Z,16.3
2018-06-02T09:56:36.827Z,16.8
2018-06-02T09:57:37.582Z,17.8
2018-06-02T09:58:38.283Z,16.9
2018-06-02T09:59:39.264Z,17.0
2018-06-02T10:00:40.245Z,16.8
2018-06-02T10:01:40.980Z,16.0
2018-06-02T10:02:41.710Z,17.0
2018-06-02T10:03:42.596Z,18.1
2018-06-02T10:04:43.388Z,18.7
2018-06-02T10:05:44.075Z,18.3
2018-06-02T10:06:44.810Z,17.9
2018-06-02T10:07:45.783Z,18.3
2018-06-02T10:08:46.517Z,18.0
2018-06-02T10:09:47.260Z,18.3
2018-06-02T10:10:48.215Z,18.0
2018-06-02T10:11:48.944Z,18.5
2018-06-02T10:12:49.675Z,20.2
2018-06-02T10:13:50.530Z,19.4
2018-06-02T10:14:51.304Z,19.4
2018-06-02T10:15:52.111Z,18.2
2018-06-02T10:16:52.879Z,20.1
2018-06-02T10:17:53.669Z,19.8
2018-06-02T10:18:54.459Z,19.1
2018-06-02T10:19:55.271Z,18.9
2018-06-02T10:20:56.141Z,18.5
2018-06-02T10:21:56.934Z,18.5
2018-06-02T10:22:58.082Z,18.9
2018-06-02T10:23:58.837Z,20.3
2018-06-02T10:24:59.628Z,17.9
2018-06-02T10:26:00.408Z,19.6
2018-06-02T10:27:01.178Z,17.8
2018-06-02T10:28:01.985Z,18.3
2018-06-02T10:29:02.758Z,18.5
2018-06-02T10:30:03.596Z,19.3
2018-06-02T10:31:04.461Z,17.2
2018-06-02T10:32:05.197Z,18.2
2018-06-02T10:33:06.198Z,18.8
2018-06-02T10:34:06.946Z,19.4
2018-06-02T10:35:07.732Z,19.0
2018-06-02T10:36:08.477Z,19.9
2018-06-02T10:37:09.218Z,18.2
2018-06-02T10:38:09.943Z,20.2
2018-06-02T10:39:10.683Z,20.3
2018-06-02T10:40:11.665Z,20.1
2018-06-02T10:41:12.392Z,19.7
2018-06-02T10:42:13.380Z,21.2
2018-06-02T10:43:14.109Z,21.3
2018-06-02T10:44:15.088Z,21.9
2018-06-02T10:45:15.830Z,20.8
2018-06-02T10:46:16.558Z,21.9
2018-06-02T10:47:17.281Z,19.7
2018-06-02T10:48:18.012Z,22.3
2018-06-02T10:49:18.754Z,20.6
2018-06-02T10:50:19.537Z,22.4
2018-06-02T10:51:20.324Z,22.6
2018-06-02T10:52:21.006Z,22.5
2018-06-02T10:53:21.738Z,21.2
2018-06-02T10:54:22.475Z,23.5
2018-06-02T10:55:23.199Z,22.4
2018-06-02T10:56:24.180Z,22.9
2018-06-02T10:57:24.925Z,23.7
2018-06-02T10:58:25.680Z,23.5
2018-06-02T10:59:26.398Z,23.5
2018-06-02T11:00:27.137Z,22.7
2018-06-02T11:01:27.877Z,23.6
2018-06-02T11:02:28.611Z,22.8
2018-06-02T11:03:29.595Z,23.0
2018-06-02T11:04:30.328Z,24.2
2018-06-02T11:05:31.078Z,23.4
2018-06-02T11:06:31.860Z,22.6
2018-06-02T11:07:32.595Z,22.6
2018-06-02T11:08:33.324Z,25.0
2018-06-02T11:09:34.061Z,23.3
2018-06-02T11:10:34.788Z,25.1
2018-06-02T11:11:35.529Z,23.6
2018-06-02T11:12:36.213Z,23.7
2018-06-02T11:13:36.953Z,24.6
2018-06-02T11:14:37.685Z,23.2
2018-06-02T11:15:38.417Z,22.4
2018-06-02T11:16:39.169Z,23.7
2018-06-02T11:17:40.865Z,23.1
2018-06-02T11:18:41.614Z,22.5
2018-06-02T11:19:42.388Z,23.5
2018-06-02T11:20:43.202Z,24.7
2018-06-02T11:21:43.972Z,24.0
2018-06-02T11:22:44.761Z,25.1
2018-06-02T11:23:45.725Z,25.3
2018-06-02T11:24:46.517Z,24.4
2018-06-02T11:25:47.318Z,25.6
2018-06-02T11:26:48.077Z,25.3
2018-06-02T11:27:48.855Z,25.6
2018-06-02T11:28:49.969Z,26.4
2018-06-02T11:29:50.765Z,26.8
2018-06-02T11:30:51.565Z,25.6
2018-06-02T11:31:52.355Z,26.7
2018-06-02T11:32:53.162Z,25.5
2018-06-02T11:33:54.364Z,26.4
2018-06-02T11:34:55.157Z,24.6
2018-06-02T11:35:56.089Z,24.0
2018-06-02T11:36:56.903Z,24.3
2018-06-02T11:37:57.661Z,24.7
2018-06-02T11:38:58.469Z,24.0
2018-06-02T11:39:59.242Z,24.9
2018-06-02T11:41:00.060Z,26.3
2018-06-02T11:42:00.825Z,24.7
2018-06-02T11:43:01.593Z,23.0
2018-06-02T11:44:02.464Z,24.0
2018-06-02T11:45:03.652Z,25.8
2018-06-02T11:46:04.690Z,23.4
2018-06-02T11:47:05.434Z,23.3
2018-06-02T11:48:06.224Z,23.3
2018-06-02T11:49:06.998Z,23.2
2018-06-02T11:50:07.808Z,23.6
2018-06-02T11:51:09.274Z,23.5
2018-06-02T11:52:10.008Z,22.6
2018-06-02T11:53:10.792Z,23.2
2018-06-02T11:54:11.657Z,21.0
2018-06-02T11:55:12.545Z,21.8
2018-06-02T11:56:13.495Z,22.8
2018-06-02T11:57:14.235Z,21.7
2018-06-02T11:58:15.001Z,21.9
2018-06-02T11:59:15.720Z,21.0
2018-06-02T12:00:16.643Z,21.7
2018-06-02T12:01:17.558Z,21.5
2018-06-02T12:02:18.336Z,20.9
2018-06-02T12:03:19.062Z,20.7
2018-06-02T12:04:19.804Z,20.6
2018-06-02T12:05:20.528Z,20.3
2018-06-02T12:06:21.621Z,20.9
2018-06-02T12:07:22.349Z,19.6
2018-06-02T12:08:23.077Z,18.8
2018-06-02T12:09:23.831Z,19.0
2018-06-02T12:10:24.837Z,18.1
2018-06-02T12:11:26.001Z,18.2
2018-06-02T12:12:26.721Z,17.6
2018-06-02T12:13:27.701Z,17.9
2018-06-02T12:14:28.442Z,17.4
2018-06-02T12:15:29.172Z,18.9
2018-06-02T12:16:30.014Z,17.5
2018-06-02T12:17:30.742Z,18.6
2018-06-02T12:18:31.483Z,19.3
2018-06-02T12:19:32.220Z,16.9
2018-06-02T12:20:33.033Z,16.9
2018-06-02T12:21:34.060Z,16.6
2018-06-02T12:22:34.792Z,16.4
2018-06-02T12:23:35.529Z,16.2
2018-06-02T12:24:36.247Z,16.2
2018-06-02T12:25:36.994Z,15.4
2018-06-02T12:26:37.730Z,15.4
2018-06-02T12:27:38.470Z,14.8
2018-06-02T12:28:39.198Z,14.4
2018-06-02T12:29:39.935Z,14.2
2018-06-02T12:30:40.675Z,15.5
2018-06-02T12:31:41.401Z,14.3
2018-06-02T12:32:42.142Z,15.1
2018-06-02T12:33:43.396Z,14.3
2018-06-02T12:34:44.129Z,16.5
2018-06-02T12:35:44.864Z,16.8
2018-06-02T12:36:45.605Z,17.0
2018-06-02T12:37:46.335Z,14.5
2018-06-02T12:38:47.066Z,15.7
2018-06-02T12:39:48.066Z,16.6
2018-06-02T12:40:48.811Z,15.6
2018-06-02T12:41:49.533Z,17.5
2018-06-02T12:42:50.270Z,17.5
2018-06-02T12:43:51.105Z,17.6
2018-06-02T12:44:51.838Z,17.6
2018-06-02T12:45:52.574Z,17.5
2018-06-02T12:46:53.347Z,17.6
2018-06-02T12:47:54.098Z,17.8
2018-06-02T12:48:54.826Z,18.3
2018-06-02T12:49:55.555Z,18.4
2018-06-02T12:50:56.284Z,17.5
2018-06-02T12:51:57.068Z,18.8
2018-06-02T12:52:57.797Z,17.8
2018-06-02T12:53:58.535Z,17.9
2018-06-02T12:54:59.275Z,18.1
2018-06-02T12:56:00.013Z,18.2
2018-06-02T12:57:00.849Z,19.5
2018-06-02T12:58:01.591Z,19.4
2018-06-02T12:59:02.324Z,18.3
2018-06-02T13:00:03.054Z,18.0
2018-06-02T13:01:03.798Z,19.0
2018-06-02T13:02:04.513Z,26.7
2018-06-02T13:03:05.243Z,26.6
2018-06-02T13:04:05.977Z,34.3
2018-06-02T13:05:06.724Z,28.2
2018-06-02T13:06:07.470Z,20.9
2018-06-02T13:07:08.463Z,29.7
2018-06-02T13:08:09.257Z,28.1
2018-06-02T13:09:09.998Z,21.3
2018-06-02T13:10:10.727Z,20.6
2018-06-02T13:11:12.399Z,20.1
2018-06-02T13:12:14.624Z,21.3
2018-06-02T13:13:16.027Z,19.8
2018-06-02T13:14:17.515Z,17.2
2018-06-02T13:15:19.618Z,17.9
2018-06-02T13:17:24.447Z,18.9
2018-06-02T13:18:27.037Z,19.2
2018-06-02T13:19:28.212Z,18.4
2018-06-02T13:20:30.229Z,20.7
2018-06-02T13:21:31.208Z,21.2
2018-06-02T13:22:31.960Z,26.1
2018-06-02T13:23:32.694Z,25.4
2018-06-02T13:24:33.799Z,23.9